Airfield :
LOGIN :

Register | Disclaimer

   EN    FR    IT 

 










Legend :    VFR   Marginal VFR   IFR   Intensive IFR   Very Intensive IFR
Visi :
Ceiling :
>= 8 km
>= 3000ft
5 to 8 km
1000 to 3000 ft
1500m to 5 km
500 to 1000 ft
800 to 1500m
200 to 500 ft
< 800m
< 200 ft
Symbols :   Thunderstorms  Fog  Heavy snow  Heavy precipitations  Wind > 20 kt
SIGMETs :     Misc.  Thunderstorms  Icing  Turbulence  Mountain Waves  Volcanic Ashes







- Airport Elevation : 408 ft
- IATA code : FKB


EDSB - Karlsruhe Baden Baden

CURRENT METAR :
  • 250820Z 21009KT 180V250 9999 FEW033 BKN040 18/12 Q1014

EXPIRED METARs :
  • 250750Z 19009KT 9999 SCT042 BKN050 17/11 Q1013
  • 250720Z 21010KT 9999 BKN045 16/11 Q1014
  • 250650Z 20009KT 9999 FEW044 SCT050 15/11 Q1013
  • 250620Z 21009KT 9999 BKN044 15/11 Q1013
  • 250550Z 24009KT 200V280 9999 BKN042 14/10 Q1013

TAF TAF EDSB
Valid from the 25 at 06:00 until the 26 at 06:00 UTC


250500Z 2506/2606 21009KT CAVOK
BECMG 2509/2511 27015G25KT
BECMG 2516/2518 26007KT
PROB30
TEMPO 2521/2602 SHRA SCT010 BKN030TCU
No reported NOTAMs for that airfield.



MET'MAP, your aeronautical weather chart ! - Copyright ORBIFLY December 2007 - Disclaimer

ORBIFLY MET'MAP TEAM :

Programming & Development : Alexandra Zaïnal
Concept & Development : Baudouin d'Aumeries
Co-Development & Prog : Marc-Olivier Méhu
Technical & hardware support : Manuel Goepfert

Contact : metmap@orbifly.com




SOURCES & CREDITS :

   NOAA